Time;durP1;ratioP1;P1;durP2;ratioP2;P2;SDS_P1;SDS_P2;PMS_P1;PMS_P2;Temp;Humidity;BMP_temperature;BMP_pressure;BME280_temperature;BME280_humidity;BME280_pressure;Samples;Min_cycle;Max_cycle;Signal;HPM_P1;HPM_P2
2022/05/14 00:01:13;;;;;;;;;2.00;0.50;;;;;;;;5053930;28;11355;-77
2022/05/14 00:03:42;;;;;;;;;1.00;1.00;;;;;;;;5060795;28;11059;-77
2022/05/14 00:06:12;;;;;;;;;4.00;1.00;;;;;;;;5060614;28;11169;-77
2022/05/14 00:08:40;;;;;;;;;2.00;0.00;;;;;;;;5059232;28;11041;-77
2022/05/14 00:13:53;;;;;;;;;1.00;1.00;;;;;;;;5056584;28;11037;-77
2022/05/14 00:16:21;;;;;;;;;1.00;1.00;;;;;;;;5061035;28;10837;-77
2022/05/14 00:18:51;;;;;;;;;1.00;1.00;;;;;;;;5054900;28;10988;-77
2022/05/14 00:21:19;;;;;;;;;1.00;1.00;;;;;;;;5055939;28;10821;-76
2022/05/14 00:23:47;;;;;;;;;0.25;0.25;;;;;;;;5062344;28;10923;-77
2022/05/14 00:26:14;;;;;;;;;3.00;1.00;;;;;;;;5060340;28;10746;-77
2022/05/14 00:28:42;;;;;;;;;1.00;1.00;;;;;;;;5058359;28;11096;-77
2022/05/14 00:31:10;;;;;;;;;1.00;1.00;;;;;;;;5060503;28;10810;-76
2022/05/14 00:33:37;;;;;;;;;2.00;1.00;;;;;;;;5061974;28;10980;-77
2022/05/14 00:36:06;;;;;;;;;1.00;1.00;;;;;;;;5060152;28;10959;-77
2022/05/14 00:38:34;;;;;;;;;1.00;1.00;;;;;;;;5060215;28;10934;-76
2022/05/14 00:41:03;;;;;;;;;0.50;0.50;;;;;;;;5069283;28;11135;-77
2022/05/14 00:43:32;;;;;;;;;1.00;1.00;;;;;;;;5062391;28;10913;-77
2022/05/14 00:46:03;;;;;;;;;1.00;1.00;;;;;;;;5060556;28;11090;-77
2022/05/14 00:48:37;;;;;;;;;2.25;1.00;;;;;;;;5046341;28;11979;-77
2022/05/14 00:51:06;;;;;;;;;1.00;1.00;;;;;;;;5060661;28;10961;-77
2022/05/14 00:53:38;;;;;;;;;2.00;1.25;;;;;;;;5050928;28;11088;-77
2022/05/14 00:56:10;;;;;;;;;1.00;1.00;;;;;;;;5056967;28;11399;-77
2022/05/14 00:58:42;;;;;;;;;1.00;1.00;;;;;;;;5057505;28;11106;-77
2022/05/14 01:01:09;;;;;;;;;5.00;1.00;;;;;;;;5056221;28;11052;-77
2022/05/14 01:03:37;;;;;;;;;2.00;2.00;;;;;;;;5061610;28;11131;-76
2022/05/14 01:06:09;;;;;;;;;1.00;1.00;;;;;;;;5076441;28;11379;-77
2022/05/14 01:08:37;;;;;;;;;1.00;1.00;;;;;;;;5053652;28;11404;-77
2022/05/14 01:11:05;;;;;;;;;1.00;1.00;;;;;;;;5050438;28;11407;-77
2022/05/14 01:13:33;;;;;;;;;2.00;2.00;;;;;;;;5062236;28;11395;-77
2022/05/14 01:16:03;;;;;;;;;0.00;0.00;;;;;;;;5059863;28;11483;-76
2022/05/14 01:18:33;;;;;;;;;1.00;1.00;;;;;;;;5061805;28;11386;-77
2022/05/14 01:21:07;;;;;;;;;0.75;0.75;;;;;;;;5064402;28;11378;-77
2022/05/14 01:26:27;;;;;;;;;3.00;0.50;;;;;;;;5056873;28;11390;-76
2022/05/14 01:26:28;;;;;;;;;1.00;1.00;;;;;;;;5064396;28;11400;-77
2022/05/14 01:28:56;;;;;;;;;1.00;1.00;;;;;;;;5058615;28;11377;-77
2022/05/14 01:31:24;;;;;;;;;1.00;1.00;;;;;;;;5059179;28;11382;-77
2022/05/14 01:33:51;;;;;;;;;0.50;0.50;;;;;;;;5057193;28;11396;-76
2022/05/14 01:36:19;;;;;;;;;1.75;1.75;;;;;;;;5063121;28;11826;-77
2022/05/14 01:38:46;;;;;;;;;1.50;1.50;;;;;;;;5064763;28;11408;-77
2022/05/14 01:41:13;;;;;;;;;2.00;2.00;;;;;;;;5058802;28;11477;-77
2022/05/14 01:43:42;;;;;;;;;1.00;1.00;;;;;;;;5063329;28;11394;-77
2022/05/14 01:46:10;;;;;;;;;2.25;2.00;;;;;;;;5057773;28;11542;-77
2022/05/14 01:48:37;;;;;;;;;0.00;0.00;;;;;;;;5063055;28;11406;-77
2022/05/14 01:51:05;;;;;;;;;1.00;1.00;;;;;;;;5059284;28;11378;-77
2022/05/14 01:53:32;;;;;;;;;3.75;2.00;;;;;;;;5063819;28;11491;-77
2022/05/14 01:56:01;;;;;;;;;3.75;2.00;;;;;;;;5057374;28;11404;-77
2022/05/14 01:58:37;;;;;;;;;1.00;1.00;;;;;;;;5062979;28;12332;-77
2022/05/14 02:01:10;;;;;;;;;1.00;1.00;;;;;;;;5056975;28;11471;-77
2022/05/14 02:03:37;;;;;;;;;0.75;0.75;;;;;;;;5063231;28;11369;-77
2022/05/14 02:06:05;;;;;;;;;1.00;1.00;;;;;;;;5054783;28;11394;-77
2022/05/14 02:08:33;;;;;;;;;1.00;1.00;;;;;;;;5061054;28;11417;-77
2022/05/14 02:11:02;;;;;;;;;3.00;2.25;;;;;;;;5066238;28;11427;-78
2022/05/14 02:13:30;;;;;;;;;1.50;1.50;;;;;;;;5032711;28;11389;-77
2022/05/14 02:15:58;;;;;;;;;1.50;1.50;;;;;;;;5056445;28;12395;-78
2022/05/14 02:18:27;;;;;;;;;2.00;2.00;;;;;;;;5049368;28;11412;-77
2022/05/14 02:20:54;;;;;;;;;3.00;2.00;;;;;;;;5062270;28;11416;-77
2022/05/14 02:23:22;;;;;;;;;2.50;1.00;;;;;;;;5063434;28;11410;-77
2022/05/14 02:25:49;;;;;;;;;1.00;1.00;;;;;;;;5045835;28;11412;-77
2022/05/14 02:28:18;;;;;;;;;2.00;2.00;;;;;;;;5058058;28;11392;-77
2022/05/14 02:30:45;;;;;;;;;2.50;2.50;;;;;;;;5049808;28;11335;-77
2022/05/14 02:33:13;;;;;;;;;2.00;2.00;;;;;;;;5056237;28;11442;-77
2022/05/14 02:35:43;;;;;;;;;0.75;0.75;;;;;;;;5060210;28;11400;-77
2022/05/14 02:38:12;;;;;;;;;1.00;1.00;;;;;;;;5062057;28;11566;-77
2022/05/14 02:40:39;;;;;;;;;1.00;1.00;;;;;;;;5036739;28;12277;-76
2022/05/14 02:43:07;;;;;;;;;1.75;1.00;;;;;;;;5060059;28;11357;-77
2022/05/14 02:45:34;;;;;;;;;3.00;1.00;;;;;;;;5053388;28;11421;-77
2022/05/14 02:48:02;;;;;;;;;1.00;1.00;;;;;;;;5059690;28;11505;-77
2022/05/14 02:50:29;;;;;;;;;1.25;1.25;;;;;;;;5054567;28;11560;-76
2022/05/14 02:52:59;;;;;;;;;2.25;2.25;;;;;;;;5052900;28;11415;-76
2022/05/14 02:55:26;;;;;;;;;2.00;2.00;;;;;;;;5062033;28;11605;-76
2022/05/14 02:57:53;;;;;;;;;2.00;2.00;;;;;;;;5026436;28;11468;-76
2022/05/14 03:00:21;;;;;;;;;1.00;1.00;;;;;;;;5043102;28;11392;-76
2022/05/14 03:02:49;;;;;;;;;1.75;1.75;;;;;;;;5061276;28;11450;-77
2022/05/14 03:05:19;;;;;;;;;1.00;1.00;;;;;;;;5062759;28;11528;-77
2022/05/14 03:07:47;;;;;;;;;1.75;1.75;;;;;;;;5061627;28;11475;-77
2022/05/14 03:10:16;;;;;;;;;1.25;1.25;;;;;;;;5060403;28;11470;-77
2022/05/14 03:12:43;;;;;;;;;2.25;2.00;;;;;;;;5061280;28;12550;-77
2022/05/14 03:15:12;;;;;;;;;2.00;2.00;;;;;;;;5052462;28;11457;-77
2022/05/14 03:17:40;;;;;;;;;1.00;1.00;;;;;;;;5059969;28;11441;-77
2022/05/14 03:20:09;;;;;;;;;1.00;1.00;;;;;;;;5042135;28;12294;-77
2022/05/14 03:22:38;;;;;;;;;1.00;1.00;;;;;;;;5062334;28;11430;-77
2022/05/14 03:25:06;;;;;;;;;1.75;1.75;;;;;;;;5039463;28;11471;-77
2022/05/14 03:27:35;;;;;;;;;2.50;1.50;;;;;;;;5054457;28;11474;-77
2022/05/14 03:30:03;;;;;;;;;1.00;1.00;;;;;;;;5056368;28;12217;-77
2022/05/14 03:32:33;;;;;;;;;2.50;2.50;;;;;;;;5060450;28;11490;-77
2022/05/14 03:35:05;;;;;;;;;1.00;1.00;;;;;;;;5062031;28;11473;-77
2022/05/14 03:37:34;;;;;;;;;2.25;1.00;;;;;;;;5053162;28;11467;-77
2022/05/14 03:40:01;;;;;;;;;1.25;0.75;;;;;;;;5065391;28;11452;-77
2022/05/14 03:42:29;;;;;;;;;1.00;1.00;;;;;;;;5056995;28;11562;-77
2022/05/14 03:44:57;;;;;;;;;0.00;0.00;;;;;;;;5059723;28;11445;-77
2022/05/14 03:47:25;;;;;;;;;1.25;1.25;;;;;;;;5061170;28;11441;-77
2022/05/14 03:49:52;;;;;;;;;1.25;1.25;;;;;;;;5076838;28;11597;-78
2022/05/14 03:52:19;;;;;;;;;1.75;1.00;;;;;;;;5045814;28;11434;-76
2022/05/14 03:54:46;;;;;;;;;2.00;2.00;;;;;;;;5059459;28;11564;-74
2022/05/14 03:57:14;;;;;;;;;4.00;2.00;;;;;;;;5053572;28;11422;-76
2022/05/14 03:59:42;;;;;;;;;1.75;1.75;;;;;;;;5056665;28;11544;-76
2022/05/14 04:02:10;;;;;;;;;1.25;1.25;;;;;;;;5058279;28;11451;-76
2022/05/14 04:04:38;;;;;;;;;2.00;2.00;;;;;;;;5061237;28;11584;-77
2022/05/14 04:07:06;;;;;;;;;3.00;3.00;;;;;;;;5055315;28;11533;-77
2022/05/14 04:09:33;;;;;;;;;2.00;2.00;;;;;;;;5059258;28;11619;-76
2022/05/14 04:12:03;;;;;;;;;3.00;1.75;;;;;;;;5054897;28;11442;-77
2022/05/14 04:14:32;;;;;;;;;1.00;1.00;;;;;;;;5061383;28;11472;-77
2022/05/14 04:16:59;;;;;;;;;2.00;2.00;;;;;;;;5060741;28;11440;-77
2022/05/14 04:19:28;;;;;;;;;3.00;3.00;;;;;;;;5060731;28;12675;-77
2022/05/14 04:21:55;;;;;;;;;1.00;1.00;;;;;;;;5051002;28;12876;-77
2022/05/14 04:24:23;;;;;;;;;1.00;1.00;;;;;;;;5060825;28;11486;-77
2022/05/14 04:26:50;;;;;;;;;3.00;3.00;;;;;;;;5062421;28;11442;-77
2022/05/14 04:29:17;;;;;;;;;3.25;2.00;;;;;;;;5053642;28;11452;-76
2022/05/14 04:31:45;;;;;;;;;2.00;2.00;;;;;;;;5057819;28;12272;-77
2022/05/14 04:34:12;;;;;;;;;2.00;2.00;;;;;;;;5053246;28;11445;-77
2022/05/14 04:36:41;;;;;;;;;2.00;2.00;;;;;;;;5059066;28;11470;-77
2022/05/14 04:39:08;;;;;;;;;3.00;1.00;;;;;;;;5062434;28;11462;-77
2022/05/14 04:41:36;;;;;;;;;2.25;2.25;;;;;;;;5071166;28;11473;-77
2022/05/14 04:44:03;;;;;;;;;2.00;2.00;;;;;;;;5059893;28;11484;-77
2022/05/14 04:46:31;;;;;;;;;5.00;3.00;;;;;;;;5075934;28;11508;-77
2022/05/14 04:48:59;;;;;;;;;3.00;3.00;;;;;;;;5063208;28;11458;-77
2022/05/14 04:51:26;;;;;;;;;2.00;2.00;;;;;;;;5060357;28;11474;-77
2022/05/14 04:53:55;;;;;;;;;1.00;1.00;;;;;;;;5063021;28;11426;-77
2022/05/14 04:56:22;;;;;;;;;3.00;2.00;;;;;;;;5063600;28;12366;-77
2022/05/14 04:58:50;;;;;;;;;4.25;4.25;;;;;;;;5064825;28;11515;-76
2022/05/14 05:01:17;;;;;;;;;8.50;3.00;;;;;;;;5065288;28;11376;-77
2022/05/14 05:03:43;;;;;;;;;4.25;4.25;;;;;;;;5041702;28;11476;-78
2022/05/14 05:06:14;;;;;;;;;2.50;2.50;;;;;;;;5062873;28;11567;-77
2022/05/14 05:08:42;;;;;;;;;3.50;3.50;;;;;;;;5063408;28;11527;-77
2022/05/14 05:11:12;;;;;;;;;1.50;1.50;;;;;;;;5069418;28;11444;-77
2022/05/14 05:13:40;;;;;;;;;3.25;3.00;;;;;;;;5067731;28;11384;-77
2022/05/14 05:16:07;;;;;;;;;3.25;3.25;;;;;;;;5062908;28;11464;-77
2022/05/14 05:18:34;;;;;;;;;2.00;2.00;;;;;;;;5064675;28;11505;-77
2022/05/14 05:21:02;;;;;;;;;6.00;5.00;;;;;;;;5067883;28;11399;-77
2022/05/14 05:23:31;;;;;;;;;3.00;3.00;;;;;;;;5070732;28;11501;-77
2022/05/14 05:25:59;;;;;;;;;3.50;3.50;;;;;;;;5065805;28;11461;-76
2022/05/14 05:28:29;;;;;;;;;8.75;4.75;;;;;;;;5054334;28;11402;-77
2022/05/14 05:30:56;;;;;;;;;6.25;6.25;;;;;;;;5062504;28;11394;-77
2022/05/14 05:33:25;;;;;;;;;6.00;6.00;;;;;;;;5077405;28;11400;-77
2022/05/14 05:35:53;;;;;;;;;7.50;5.00;;;;;;;;5074863;28;11390;-77
2022/05/14 05:38:20;;;;;;;;;2.75;2.75;;;;;;;;5077465;28;11389;-77
2022/05/14 05:40:47;;;;;;;;;5.25;5.25;;;;;;;;5074077;28;12200;-77
2022/05/14 05:43:15;;;;;;;;;3.75;3.25;;;;;;;;5064059;28;11509;-77
2022/05/14 05:45:48;;;;;;;;;6.75;6.75;;;;;;;;5065041;28;11415;-77
2022/05/14 05:48:15;;;;;;;;;6.25;4.00;;;;;;;;5063944;28;11445;-78
2022/05/14 05:50:44;;;;;;;;;7.00;6.75;;;;;;;;5064785;28;11137;-77
2022/05/14 05:53:13;;;;;;;;;4.25;4.25;;;;;;;;5063248;28;11229;-78
2022/05/14 05:58:26;;;;;;;;;6.50;6.00;;;;;;;;5078528;28;11040;-78
2022/05/14 06:00:55;;;;;;;;;8.50;7.00;;;;;;;;5052255;28;10852;-78
2022/05/14 06:03:22;;;;;;;;;6.50;6.00;;;;;;;;5035931;28;11575;-77
2022/05/14 06:05:49;;;;;;;;;4.00;4.00;;;;;;;;5061100;28;10832;-79
2022/05/14 06:08:20;;;;;;;;;6.75;5.50;;;;;;;;5063013;28;10681;-77
2022/05/14 06:10:47;;;;;;;;;7.25;7.00;;;;;;;;5056401;28;10796;-78
2022/05/14 06:13:15;;;;;;;;;7.50;7.50;;;;;;;;5060910;28;10790;-78
2022/05/14 06:15:42;;;;;;;;;7.75;6.50;;;;;;;;5059745;28;10690;-78
2022/05/14 06:18:11;;;;;;;;;7.75;7.75;;;;;;;;5048916;28;11504;-81
2022/05/14 06:20:39;;;;;;;;;5.50;5.50;;;;;;;;5064766;28;10594;-83
2022/05/14 06:23:07;;;;;;;;;6.00;6.00;;;;;;;;5064421;28;10363;-83
2022/05/14 06:25:35;;;;;;;;;3.50;3.50;;;;;;;;5048183;28;10609;-82
2022/05/14 06:28:03;;;;;;;;;8.25;8.00;;;;;;;;5065238;28;10326;-82
2022/05/14 06:30:33;;;;;;;;;6.00;6.00;;;;;;;;5053738;28;10306;-85
2022/05/14 06:33:06;;;;;;;;;7.00;7.00;;;;;;;;5063958;28;10321;-87
2022/05/14 06:35:36;;;;;;;;;5.00;5.00;;;;;;;;5064083;28;10320;-82
2022/05/14 06:38:04;;;;;;;;;6.00;6.00;;;;;;;;5064995;28;10197;-79
2022/05/14 06:40:32;;;;;;;;;9.00;5.25;;;;;;;;5063179;28;10164;-79
2022/05/14 06:43:00;;;;;;;;;7.00;4.00;;;;;;;;5060276;28;10226;-83
2022/05/14 06:45:27;;;;;;;;;9.50;5.00;;;;;;;;5060355;28;10093;-84
2022/05/14 06:47:55;;;;;;;;;5.50;5.50;;;;;;;;5063887;28;10063;-83
2022/05/14 06:50:22;;;;;;;;;5.75;5.75;;;;;;;;5064616;28;10055;-84
2022/05/14 06:52:53;;;;;;;;;7.00;7.00;;;;;;;;5053637;28;9983;-86
2022/05/14 06:55:23;;;;;;;;;7.00;7.00;;;;;;;;5050712;28;9927;-85
2022/05/14 06:57:52;;;;;;;;;5.00;5.00;;;;;;;;5056948;28;9906;-85
2022/05/14 07:00:20;;;;;;;;;4.00;4.00;;;;;;;;5061387;28;9723;-83
2022/05/14 07:02:48;;;;;;;;;6.50;5.00;;;;;;;;5052184;28;9637;-81
2022/05/14 07:08:03;;;;;;;;;6.00;5.50;;;;;;;;5050122;28;9523;-81
2022/05/14 07:10:31;;;;;;;;;6.00;4.00;;;;;;;;5041959;28;9577;-84
2022/05/14 07:12:58;;;;;;;;;3.00;3.00;;;;;;;;5032116;28;9641;-83
2022/05/14 07:15:25;;;;;;;;;3.00;3.00;;;;;;;;5050437;28;9339;-79
2022/05/14 07:17:53;;;;;;;;;5.00;5.00;;;;;;;;5048032;28;9506;-81
2022/05/14 07:20:23;;;;;;;;;4.00;3.00;;;;;;;;5054624;28;10709;-82
2022/05/14 07:22:51;;;;;;;;;2.00;2.00;;;;;;;;5056532;28;9506;-82
2022/05/14 07:25:20;;;;;;;;;4.00;4.00;;;;;;;;5065665;28;10216;-85
2022/05/14 07:27:47;;;;;;;;;2.67;2.00;;;;;;;;5054130;28;9323;-82
2022/05/14 07:30:14;;;;;;;;;3.00;3.00;;;;;;;;5050030;28;9286;-84
2022/05/14 07:32:42;;;;;;;;;4.00;2.67;;;;;;;;5050195;28;9197;-84
2022/05/14 07:35:09;;;;;;;;;2.67;2.00;;;;;;;;5039694;28;9074;-85
2022/05/14 07:37:41;;;;;;;;;3.00;1.33;;;;;;;;5052261;28;9220;-86
2022/05/14 07:40:11;;;;;;;;;1.00;1.00;;;;;;;;5053752;28;8943;-86
2022/05/14 07:42:45;;;;;;;;;6.00;2.25;;;;;;;;5057560;28;8947;-86
2022/05/14 07:45:16;;;;;;;;;2.00;2.00;;;;;;;;5055099;28;8876;-78
2022/05/14 07:47:43;;;;;;;;;1.00;1.00;;;;;;;;5060013;28;8864;-82
2022/05/14 07:50:11;;;;;;;;;1.00;1.00;;;;;;;;5054476;28;8865;-82
2022/05/14 07:52:38;;;;;;;;;3.00;2.00;;;;;;;;5057802;28;9287;-78
2022/05/14 07:55:07;;;;;;;;;1.00;1.00;;;;;;;;5058095;28;8858;-81
2022/05/14 07:57:35;;;;;;;;;2.00;2.00;;;;;;;;5054127;28;9039;-79
2022/05/14 08:00:05;;;;;;;;;2.75;2.75;;;;;;;;5033658;28;8878;-77
2022/05/14 08:02:35;;;;;;;;;3.00;2.25;;;;;;;;5051644;28;8830;-86
2022/05/14 08:05:04;;;;;;;;;1.50;1.50;;;;;;;;5062444;28;8822;-83
2022/05/14 08:07:32;;;;;;;;;3.75;1.75;;;;;;;;5042800;28;8848;-82
2022/05/14 08:10:00;;;;;;;;;2.50;2.50;;;;;;;;5053807;28;8878;-87
2022/05/14 08:12:32;;;;;;;;;2.00;2.00;;;;;;;;5054620;28;8888;-81
2022/05/14 08:14:59;;;;;;;;;1.50;1.25;;;;;;;;5051563;28;8844;-83
2022/05/14 08:17:29;;;;;;;;;1.50;1.50;;;;;;;;5053560;28;8907;-82
2022/05/14 08:19:56;;;;;;;;;1.00;1.00;;;;;;;;5066903;28;8856;-88
2022/05/14 08:25:09;;;;;;;;;5.00;2.00;;;;;;;;5057172;28;8836;-85
2022/05/14 08:27:45;;;;;;;;;2.50;1.75;;;;;;;;5064583;28;8846;-81
2022/05/14 08:30:13;;;;;;;;;1.00;1.00;;;;;;;;5063123;28;8845;-82
2022/05/14 08:32:42;;;;;;;;;1.00;1.00;;;;;;;;5059021;28;8876;-83
2022/05/14 08:35:09;;;;;;;;;2.25;1.00;;;;;;;;5066773;28;8964;-83
2022/05/14 08:37:37;;;;;;;;;1.75;1.75;;;;;;;;5064192;28;8946;-80
2022/05/14 08:40:07;;;;;;;;;1.00;1.00;;;;;;;;5064852;28;8834;-84
2022/05/14 08:42:35;;;;;;;;;0.50;0.50;;;;;;;;5063779;28;9747;-85
2022/05/14 08:45:03;;;;;;;;;1.25;1.25;;;;;;;;5068545;28;9757;-79
2022/05/14 08:47:34;;;;;;;;;1.50;0.00;;;;;;;;5070725;28;8853;-80
2022/05/14 08:50:04;;;;;;;;;2.00;2.00;;;;;;;;5067091;28;8997;-86
2022/05/14 08:52:32;;;;;;;;;1.00;1.00;;;;;;;;5050815;28;8957;-83
2022/05/14 08:55:02;;;;;;;;;2.00;1.00;;;;;;;;5049231;28;8872;-81
2022/05/14 08:57:37;;;;;;;;;2.00;2.00;;;;;;;;5045234;28;8952;-82
2022/05/14 09:00:07;;;;;;;;;0.50;0.50;;;;;;;;5045798;28;9743;-79
2022/05/14 09:02:38;;;;;;;;;1.75;1.75;;;;;;;;5048729;28;8862;-82
2022/05/14 09:05:10;;;;;;;;;2.00;1.50;;;;;;;;5048723;28;8946;-83
2022/05/14 09:07:37;;;;;;;;;3.40;1.80;;;;;;;;5053901;28;8858;-82
2022/05/14 09:10:08;;;;;;;;;3.00;1.40;;;;;;;;5057792;28;8907;-82
2022/05/14 09:12:49;;;;;;;;;1.40;1.40;;;;;;;;5058571;28;8880;-80
2022/05/14 09:15:17;;;;;;;;;1.00;1.00;;;;;;;;5058463;28;8956;-81
2022/05/14 09:17:45;;;;;;;;;1.00;1.00;;;;;;;;5037543;28;8875;-80
2022/05/14 09:20:25;;;;;;;;;1.00;1.00;;;;;;;;5060255;28;8858;-81
2022/05/14 09:22:55;;;;;;;;;2.00;2.00;;;;;;;;5062740;28;8934;-81
2022/05/14 09:25:26;;;;;;;;;0.40;0.40;;;;;;;;5054575;28;8881;-81
2022/05/14 09:27:56;;;;;;;;;3.00;2.00;;;;;;;;5064627;28;8870;-79
2022/05/14 09:30:27;;;;;;;;;1.00;1.00;;;;;;;;5063122;28;8941;-81
2022/05/14 09:32:54;;;;;;;;;2.00;0.80;;;;;;;;5065388;28;8908;-80
2022/05/14 09:35:25;;;;;;;;;2.00;2.00;;;;;;;;5057397;28;9635;-79
2022/05/14 09:37:56;;;;;;;;;0.00;0.00;;;;;;;;5064254;28;8842;-85
2022/05/14 09:40:26;;;;;;;;;1.00;1.00;;;;;;;;5060886;28;8866;-81
2022/05/14 09:42:55;;;;;;;;;1.20;1.00;;;;;;;;5056288;28;8907;-84
2022/05/14 09:45:28;;;;;;;;;2.60;0.20;;;;;;;;5043191;28;8881;-80
2022/05/14 09:47:55;;;;;;;;;1.00;1.00;;;;;;;;5073531;28;8898;-82
2022/05/14 09:50:32;;;;;;;;;2.00;1.00;;;;;;;;5065795;28;9287;-81
2022/05/14 09:53:06;;;;;;;;;1.00;1.00;;;;;;;;5072297;28;8861;-81
2022/05/14 09:56:15;;;;;;;;;2.60;2.60;;;;;;;;5065051;28;8889;-81
2022/05/14 09:58:49;;;;;;;;;1.40;1.40;;;;;;;;5024442;28;8881;-81
2022/05/14 10:01:20;;;;;;;;;1.00;1.00;;;;;;;;5046210;28;8799;-81
2022/05/14 10:04:06;;;;;;;;;1.20;1.20;;;;;;;;5065377;28;8862;-80
2022/05/14 10:06:42;;;;;;;;;1.00;1.00;;;;;;;;5082506;28;8855;-82
2022/05/14 10:09:21;;;;;;;;;2.20;1.00;;;;;;;;5073790;28;8861;-82
2022/05/14 10:11:53;;;;;;;;;1.00;1.00;;;;;;;;5052133;28;8943;-81
2022/05/14 10:14:29;;;;;;;;;1.00;1.00;;;;;;;;5084525;28;8975;-81
2022/05/14 10:17:13;;;;;;;;;2.80;1.60;;;;;;;;5066679;28;8864;-80
2022/05/14 10:20:12;;;;;;;;;2.20;1.00;;;;;;;;5081364;28;8869;-80
2022/05/14 10:28:33;;;;;;;;;0.00;0.00;;;;;;;;5049030;28;8822;-82
2022/05/14 10:31:04;;;;;;;;;1.00;1.00;;;;;;;;5063345;28;9666;-82
2022/05/14 10:33:33;;;;;;;;;0.80;0.80;;;;;;;;5064674;28;8877;-82
2022/05/14 10:36:07;;;;;;;;;0.80;0.80;;;;;;;;5062622;28;8873;-80
2022/05/14 10:38:45;;;;;;;;;0.00;0.00;;;;;;;;5061278;28;8858;-80
2022/05/14 10:41:12;;;;;;;;;2.00;1.80;;;;;;;;5062668;28;8853;-82
2022/05/14 10:43:48;;;;;;;;;0.00;0.00;;;;;;;;5045800;28;8858;-81
2022/05/14 10:46:18;;;;;;;;;1.00;1.00;;;;;;;;5083354;28;8839;-82
2022/05/14 10:48:52;;;;;;;;;0.00;0.00;;;;;;;;5083260;28;8863;-82
2022/05/14 10:51:25;;;;;;;;;0.80;0.80;;;;;;;;5084364;28;8873;-82
2022/05/14 10:53:54;;;;;;;;;0.60;0.60;;;;;;;;5064955;28;8868;-82
2022/05/14 10:56:27;;;;;;;;;0.60;0.60;;;;;;;;5056301;28;8859;-81
2022/05/14 10:59:02;;;;;;;;;3.00;1.00;;;;;;;;5054306;28;8871;-82
2022/05/14 11:01:35;;;;;;;;;0.40;0.40;;;;;;;;5059156;28;8806;-80
2022/05/14 11:04:17;;;;;;;;;0.20;0.20;;;;;;;;5078089;28;9662;-79
2022/05/14 11:06:54;;;;;;;;;0.20;0.20;;;;;;;;5053821;28;8873;-80
2022/05/14 11:09:43;;;;;;;;;0.80;0.80;;;;;;;;5061162;28;8873;-79
2022/05/14 11:12:15;;;;;;;;;0.80;0.00;;;;;;;;5068466;28;8913;-82
2022/05/14 11:14:44;;;;;;;;;0.60;0.60;;;;;;;;5064981;28;9022;-80
2022/05/14 11:17:21;;;;;;;;;0.60;0.60;;;;;;;;5063500;28;8862;-82
2022/05/14 11:19:49;;;;;;;;;0.20;0.20;;;;;;;;5062841;28;8860;-82
2022/05/14 11:22:24;;;;;;;;;1.40;0.80;;;;;;;;5050755;28;9005;-79
2022/05/14 11:24:53;;;;;;;;;0.80;0.80;;;;;;;;5059784;28;8908;-77
2022/05/14 11:27:34;;;;;;;;;4.40;0.80;;;;;;;;5057741;28;8858;-83
2022/05/14 11:30:05;;;;;;;;;2.20;0.60;;;;;;;;5062856;28;8911;-84
2022/05/14 11:32:42;;;;;;;;;0.80;0.80;;;;;;;;5054527;28;8847;-78
2022/05/14 11:35:09;;;;;;;;;1.00;0.80;;;;;;;;5058459;28;8878;-79
2022/05/14 11:37:39;;;;;;;;;1.60;1.40;;;;;;;;5054608;28;8868;-80
2022/05/14 11:40:28;;;;;;;;;0.80;0.80;;;;;;;;5063638;28;8868;-81
2022/05/14 11:43:09;;;;;;;;;1.80;0.20;;;;;;;;5040171;28;8837;-79
2022/05/14 11:45:40;;;;;;;;;0.00;0.00;;;;;;;;5058162;28;8878;-80
2022/05/14 11:48:09;;;;;;;;;0.20;0.20;;;;;;;;5055605;28;8923;-80
2022/05/14 11:50:40;;;;;;;;;0.00;0.00;;;;;;;;5070031;28;8850;-80
2022/05/14 11:53:18;;;;;;;;;0.00;0.00;;;;;;;;5062694;28;8870;-78
2022/05/14 11:55:52;;;;;;;;;0.00;0.00;;;;;;;;5078898;28;9647;-82
2022/05/14 11:58:27;;;;;;;;;0.80;0.80;;;;;;;;5071396;28;8854;-80
2022/05/14 12:00:55;;;;;;;;;0.00;0.00;;;;;;;;5067053;28;8825;-78
2022/05/14 12:03:26;;;;;;;;;0.00;0.00;;;;;;;;5065841;28;8835;-77
2022/05/14 12:05:57;;;;;;;;;0.40;0.00;;;;;;;;5054717;28;8869;-80
2022/05/14 12:08:46;;;;;;;;;0.00;0.00;;;;;;;;5044783;28;8960;-78
2022/05/14 12:11:27;;;;;;;;;2.00;0.40;;;;;;;;5065908;28;8862;-80
2022/05/14 12:14:09;;;;;;;;;0.00;0.00;;;;;;;;5069664;28;8864;-77
2022/05/14 12:16:38;;;;;;;;;1.00;0.20;;;;;;;;5062355;28;8897;-80
2022/05/14 12:19:09;;;;;;;;;0.00;0.00;;;;;;;;5067255;28;8903;-82
2022/05/14 12:21:36;;;;;;;;;1.00;0.00;;;;;;;;5066064;28;8862;-82
2022/05/14 12:24:04;;;;;;;;;0.00;0.00;;;;;;;;5066072;28;8862;-82
2022/05/14 12:26:36;;;;;;;;;0.00;0.00;;;;;;;;5069578;28;9003;-81
2022/05/14 12:29:14;;;;;;;;;0.20;0.20;;;;;;;;5059543;28;8842;-83
2022/05/14 12:34:36;;;;;;;;;0.00;0.00;;;;;;;;5047518;28;8818;-79
2022/05/14 12:37:05;;;;;;;;;0.00;0.00;;;;;;;;5059402;28;8872;-83
2022/05/14 12:39:34;;;;;;;;;0.80;0.80;;;;;;;;5062158;28;8906;-81
2022/05/14 12:42:08;;;;;;;;;0.20;0.20;;;;;;;;5075325;28;8950;-83
2022/05/14 12:44:38;;;;;;;;;0.00;0.00;;;;;;;;5063583;28;9000;-80
2022/05/14 12:47:06;;;;;;;;;0.20;0.20;;;;;;;;5067693;28;8847;-82
2022/05/14 12:49:38;;;;;;;;;0.00;0.00;;;;;;;;5046924;28;8862;-79
2022/05/14 12:52:09;;;;;;;;;0.40;0.40;;;;;;;;5073052;28;8875;-83
2022/05/14 12:54:47;;;;;;;;;0.00;0.00;;;;;;;;5059244;28;8895;-83
2022/05/14 12:57:16;;;;;;;;;0.00;0.00;;;;;;;;5059597;28;9635;-81
2022/05/14 12:59:44;;;;;;;;;1.00;0.00;;;;;;;;5045348;28;8858;-83
2022/05/14 13:02:14;;;;;;;;;0.00;0.00;;;;;;;;5085722;28;9376;-83
2022/05/14 13:04:45;;;;;;;;;0.00;0.00;;;;;;;;5075275;28;8915;-81
2022/05/14 13:07:13;;;;;;;;;0.00;0.00;;;;;;;;5066632;28;8892;-81
2022/05/14 13:09:42;;;;;;;;;0.00;0.00;;;;;;;;5066028;28;8861;-83
2022/05/14 13:12:17;;;;;;;;;0.00;0.00;;;;;;;;5064649;28;8992;-81
2022/05/14 13:14:50;;;;;;;;;0.00;0.00;;;;;;;;5071615;28;9270;-82
2022/05/14 13:17:18;;;;;;;;;0.00;0.00;;;;;;;;5064640;28;8862;-81
2022/05/14 13:19:47;;;;;;;;;0.00;0.00;;;;;;;;5081794;28;8974;-81
2022/05/14 13:22:29;;;;;;;;;1.00;0.00;;;;;;;;5065863;28;8850;-81
2022/05/14 13:24:57;;;;;;;;;0.00;0.00;;;;;;;;5057613;28;8959;-82
2022/05/14 13:27:32;;;;;;;;;0.00;0.00;;;;;;;;5073216;28;8852;-82
2022/05/14 13:30:11;;;;;;;;;0.00;0.00;;;;;;;;5066468;28;8854;-81
2022/05/14 13:32:41;;;;;;;;;0.00;0.00;;;;;;;;5065354;28;8950;-80
2022/05/14 13:37:58;;;;;;;;;0.00;0.00;;;;;;;;5072085;28;9631;-80
2022/05/14 13:40:29;;;;;;;;;0.00;0.00;;;;;;;;5079800;28;9653;-82
2022/05/14 13:43:04;;;;;;;;;1.00;0.00;;;;;;;;5065144;28;8853;-82
2022/05/14 13:45:34;;;;;;;;;1.00;0.00;;;;;;;;5078513;28;8886;-81
2022/05/14 13:48:04;;;;;;;;;0.80;0.00;;;;;;;;5051059;28;9662;-83
2022/05/14 13:50:34;;;;;;;;;0.00;0.00;;;;;;;;5066246;28;8893;-83
2022/05/14 13:53:04;;;;;;;;;0.00;0.00;;;;;;;;5065529;28;8873;-80
2022/05/14 13:55:34;;;;;;;;;0.00;0.00;;;;;;;;5066421;28;8865;-81
2022/05/14 13:58:06;;;;;;;;;0.00;0.00;;;;;;;;5066886;28;8977;-80
2022/05/14 14:00:51;;;;;;;;;0.00;0.00;;;;;;;;5063258;28;8836;-80
2022/05/14 14:03:21;;;;;;;;;0.00;0.00;;;;;;;;5051752;28;8855;-82
2022/05/14 14:05:51;;;;;;;;;0.00;0.00;;;;;;;;5081781;28;8869;-82
2022/05/14 14:08:21;;;;;;;;;0.00;0.00;;;;;;;;5062387;28;9667;-81
2022/05/14 14:10:49;;;;;;;;;0.00;0.00;;;;;;;;5065743;28;8847;-78
2022/05/14 14:13:18;;;;;;;;;0.00;0.00;;;;;;;;5055986;28;8883;-78
2022/05/14 14:15:46;;;;;;;;;0.00;0.00;;;;;;;;5060583;28;8885;-79
2022/05/14 14:18:13;;;;;;;;;0.40;0.00;;;;;;;;5062795;28;8915;-81
2022/05/14 14:20:43;;;;;;;;;0.40;0.00;;;;;;;;5046401;28;8896;-86
2022/05/14 14:23:14;;;;;;;;;0.80;0.00;;;;;;;;5067580;28;8936;-82
2022/05/14 14:25:43;;;;;;;;;0.00;0.00;;;;;;;;5083546;28;8883;-79
2022/05/14 14:28:11;;;;;;;;;0.00;0.00;;;;;;;;5070501;28;8859;-79
2022/05/14 14:30:40;;;;;;;;;0.00;0.00;;;;;;;;5059515;28;9015;-83
2022/05/14 14:33:08;;;;;;;;;0.00;0.00;;;;;;;;5060992;28;8899;-79
2022/05/14 14:35:36;;;;;;;;;0.00;0.00;;;;;;;;5062382;28;8869;-81
2022/05/14 14:38:04;;;;;;;;;1.00;0.00;;;;;;;;5063750;28;8889;-79
2022/05/14 14:40:31;;;;;;;;;0.20;0.20;;;;;;;;5046457;28;8874;-83
2022/05/14 14:42:58;;;;;;;;;0.00;0.00;;;;;;;;5064553;28;8990;-80
2022/05/14 14:45:26;;;;;;;;;0.00;0.00;;;;;;;;5067019;28;8900;-80
2022/05/14 14:47:56;;;;;;;;;0.00;0.00;;;;;;;;5062339;28;8854;-80
2022/05/14 14:50:25;;;;;;;;;0.60;0.00;;;;;;;;5056115;28;8895;-78
2022/05/14 14:52:52;;;;;;;;;0.00;0.00;;;;;;;;5062177;28;8866;-79
2022/05/14 14:55:21;;;;;;;;;0.00;0.00;;;;;;;;5048072;28;8854;-78
2022/05/14 14:57:48;;;;;;;;;1.00;0.00;;;;;;;;5052631;28;8882;-77
2022/05/14 15:00:18;;;;;;;;;1.20;0.00;;;;;;;;5058714;28;8881;-82
2022/05/14 15:02:50;;;;;;;;;0.00;0.00;;;;;;;;5060501;28;8846;-80
2022/05/14 15:05:22;;;;;;;;;0.40;0.00;;;;;;;;5060595;28;8880;-80
2022/05/14 15:07:51;;;;;;;;;0.00;0.00;;;;;;;;5066936;28;8863;-81
2022/05/14 15:10:18;;;;;;;;;0.00;0.00;;;;;;;;5057889;28;8888;-84
2022/05/14 15:12:47;;;;;;;;;0.00;0.00;;;;;;;;5060863;28;8878;-82
2022/05/14 15:15:15;;;;;;;;;0.00;0.00;;;;;;;;5062320;28;8922;-81
2022/05/14 15:17:44;;;;;;;;;0.00;0.00;;;;;;;;5058505;28;8845;-81
2022/05/14 15:20:13;;;;;;;;;0.00;0.00;;;;;;;;5052820;28;9628;-81
2022/05/14 15:22:42;;;;;;;;;0.00;0.00;;;;;;;;5051919;28;8885;-83
2022/05/14 15:25:11;;;;;;;;;0.00;0.00;;;;;;;;5060892;28;8870;-82
2022/05/14 15:27:38;;;;;;;;;0.00;0.00;;;;;;;;5052140;28;8961;-83
2022/05/14 15:30:09;;;;;;;;;2.40;2.00;;;;;;;;5059641;28;8874;-82